createdAt,value
2022-12-19T00:01:32.100Z,31.90
2022-12-19T00:04:01.182Z,39.53
2022-12-19T00:06:28.936Z,37.47
2022-12-19T00:08:56.461Z,36.80
2022-12-19T00:11:24.480Z,35.70
2022-12-19T00:13:50.919Z,36.05
2022-12-19T00:16:22.949Z,38.30
2022-12-19T00:18:50.608Z,37.13
2022-12-19T00:21:23.385Z,40.08
2022-12-19T00:23:50.545Z,39.25
2022-12-19T00:26:22.732Z,40.03
2022-12-19T00:28:52.158Z,36.22
2022-12-19T00:31:19.678Z,35.30
2022-12-19T00:33:46.812Z,40.90
2022-12-19T00:36:16.495Z,40.38
2022-12-19T00:38:49.852Z,36.33
2022-12-19T00:41:25.795Z,37.60
2022-12-19T00:43:54.094Z,36.08
2022-12-19T00:46:21.045Z,38.67
2022-12-19T00:48:47.687Z,41.53
2022-12-19T00:51:19.455Z,39.75
2022-12-19T00:53:47.375Z,39.60
2022-12-19T00:56:18.264Z,38.95
2022-12-19T00:58:47.317Z,35.75
2022-12-19T01:01:20.055Z,35.35
2022-12-19T01:04:18.569Z,37.35
2022-12-19T01:06:33.998Z,32.47
2022-12-19T01:09:00.997Z,33.35
2022-12-19T01:11:46.048Z,38.70
2022-12-19T01:14:19.064Z,36.38
2022-12-19T01:16:47.653Z,36.97
2022-12-19T01:19:14.320Z,37.38
2022-12-19T01:21:40.735Z,36.38
2022-12-19T01:24:07.814Z,34.28
2022-12-19T01:26:34.274Z,32.63
2022-12-19T01:29:00.682Z,34.10
2022-12-19T01:31:27.188Z,36.72
2022-12-19T01:33:53.637Z,36.85
2022-12-19T01:36:21.036Z,32.58
2022-12-19T01:38:47.420Z,31.95
2022-12-19T01:41:13.781Z,34.90
2022-12-19T01:44:00.109Z,33.20
2022-12-19T01:46:39.953Z,31.90
2022-12-19T01:49:13.566Z,35.25
2022-12-19T01:51:45.639Z,32.13
2022-12-19T01:54:22.243Z,33.05
2022-12-19T01:56:51.769Z,28.52
2022-12-19T01:59:24.007Z,34.65
2022-12-19T02:01:54.443Z,31.05
2022-12-19T02:04:21.417Z,32.03
2022-12-19T02:06:48.701Z,32.30
2022-12-19T02:09:15.887Z,31.95
2022-12-19T02:11:42.408Z,28.85
2022-12-19T02:14:09.010Z,30.92
2022-12-19T02:17:08.729Z,27.27
2022-12-19T02:19:57.027Z,28.48
2022-12-19T02:23:00.584Z,29.85
2022-12-19T02:25:29.860Z,29.80
2022-12-19T02:28:22.358Z,27.85
2022-12-19T02:31:13.821Z,27.98
2022-12-19T02:34:03.140Z,28.27
2022-12-19T02:36:40.333Z,28.63
2022-12-19T02:39:15.615Z,29.65
2022-12-19T02:41:47.620Z,25.88
2022-12-19T02:44:37.895Z,23.33
2022-12-19T02:47:07.564Z,27.13
2022-12-19T02:49:35.902Z,24.88
2022-12-19T02:52:20.599Z,26.75
2022-12-19T02:54:53.477Z,23.38
2022-12-19T02:57:23.872Z,24.30
2022-12-19T03:00:02.970Z,23.77
2022-12-19T03:03:00.816Z,24.50
2022-12-19T03:05:33.793Z,29.13
2022-12-19T03:08:18.654Z,24.75
2022-12-19T03:10:57.207Z,25.92
2022-12-19T03:14:12.153Z,24.55
2022-12-19T03:16:41.949Z,29.23
2022-12-19T03:19:11.624Z,23.48
2022-12-19T03:21:41.585Z,25.80
2022-12-19T03:24:10.749Z,27.75
2022-12-19T03:27:01.791Z,24.85
2022-12-19T03:29:35.746Z,28.08
2022-12-19T03:32:07.309Z,27.30
2022-12-19T03:34:41.937Z,24.45
2022-12-19T03:37:14.638Z,29.90
2022-12-19T03:39:42.744Z,22.92
2022-12-19T03:42:29.063Z,25.35
2022-12-19T03:44:57.747Z,27.23
2022-12-19T03:47:31.685Z,19.70
2022-12-19T03:49:58.195Z,24.73
2022-12-19T03:52:28.902Z,28.08
2022-12-19T03:55:05.226Z,28.25
2022-12-19T03:57:41.459Z,25.65
2022-12-19T04:00:12.850Z,26.65
2022-12-19T04:02:43.694Z,25.15
2022-12-19T04:05:15.031Z,26.70
2022-12-19T04:07:42.525Z,23.70
2022-12-19T04:10:13.600Z,28.20
2022-12-19T04:12:45.134Z,26.95
2022-12-19T04:15:11.954Z,24.45
2022-12-19T04:17:47.540Z,29.60
2022-12-19T04:20:22.227Z,27.48
2022-12-19T04:23:06.951Z,27.13
2022-12-19T04:25:43.634Z,27.58
2022-12-19T04:28:15.748Z,28.00
2022-12-19T04:30:44.894Z,25.63
2022-12-19T04:33:11.314Z,29.77
2022-12-19T04:35:38.062Z,28.50
2022-12-19T04:38:04.869Z,32.67
2022-12-19T04:40:39.372Z,27.38
2022-12-19T04:43:08.396Z,30.83
2022-12-19T04:45:35.065Z,32.80
2022-12-19T04:48:02.273Z,28.15
2022-12-19T04:50:28.646Z,30.00
2022-12-19T04:52:58.196Z,27.10
2022-12-19T04:55:24.741Z,29.42
2022-12-19T04:57:51.167Z,32.08
2022-12-19T05:00:17.662Z,27.15
2022-12-19T05:02:45.599Z,30.88
2022-12-19T05:05:12.159Z,34.15
2022-12-19T05:07:38.538Z,36.40
2022-12-19T05:10:05.566Z,32.95
2022-12-19T05:12:31.964Z,32.80
2022-12-19T05:14:58.358Z,33.25
2022-12-19T05:17:24.941Z,32.08
2022-12-19T05:19:51.378Z,29.58
2022-12-19T05:22:17.782Z,30.90
2022-12-19T05:24:44.742Z,29.60
2022-12-19T05:27:11.189Z,33.25
2022-12-19T05:29:37.593Z,33.15
2022-12-19T05:32:04.023Z,26.90
2022-12-19T05:34:30.425Z,30.92
2022-12-19T05:36:56.887Z,39.03
2022-12-19T05:39:23.407Z,37.28
2022-12-19T05:41:49.822Z,36.25
2022-12-19T05:44:16.342Z,37.55
2022-12-19T05:46:42.943Z,36.58
2022-12-19T05:49:09.371Z,36.33
2022-12-19T05:51:36.446Z,36.55
2022-12-19T05:54:03.115Z,34.60
2022-12-19T05:56:29.562Z,34.58
2022-12-19T05:58:55.981Z,32.83
2022-12-19T06:01:26.604Z,33.38
2022-12-19T06:03:54.801Z,34.33
2022-12-19T06:06:23.784Z,32.78
2022-12-19T06:08:57.578Z,35.53
2022-12-19T06:11:24.875Z,37.25
2022-12-19T06:13:51.927Z,30.20
2022-12-19T06:16:19.817Z,31.15
2022-12-19T06:18:47.362Z,33.78
2022-12-19T06:21:16.903Z,32.25
2022-12-19T06:23:44.183Z,37.45
2022-12-19T06:26:18.661Z,34.85
2022-12-19T06:28:46.259Z,37.85
2022-12-19T06:31:13.621Z,36.72
2022-12-19T06:33:40.557Z,34.42
2022-12-19T06:36:14.243Z,38.72
2022-12-19T06:38:40.660Z,39.33
2022-12-19T06:41:25.752Z,36.30
2022-12-19T06:43:53.854Z,37.50
2022-12-19T06:46:20.578Z,38.03
2022-12-19T06:48:47.073Z,36.50
2022-12-19T06:51:13.446Z,35.33
2022-12-19T06:53:40.343Z,35.47
2022-12-19T06:56:07.528Z,30.90
2022-12-19T06:58:34.781Z,37.97
2022-12-19T07:01:01.658Z,34.38
2022-12-19T07:03:38.696Z,37.38
2022-12-19T07:06:05.973Z,39.22
2022-12-19T07:08:32.852Z,40.35
2022-12-19T07:10:59.344Z,37.92
2022-12-19T07:13:25.898Z,37.08
2022-12-19T07:15:52.903Z,36.72
2022-12-19T07:18:19.373Z,32.45
2022-12-19T07:20:46.242Z,43.45
2022-12-19T07:23:16.884Z,41.53
2022-12-19T07:25:43.335Z,43.80
2022-12-19T07:28:09.880Z,39.72
2022-12-19T07:30:36.393Z,37.42
2022-12-19T07:33:02.745Z,38.72
2022-12-19T07:35:29.195Z,38.70
2022-12-19T07:38:01.845Z,37.83
2022-12-19T07:40:28.239Z,41.92
2022-12-19T07:42:54.623Z,38.17
2022-12-19T07:45:21.058Z,44.03
2022-12-19T07:47:47.923Z,38.72
2022-12-19T07:50:14.319Z,43.28
2022-12-19T07:52:40.902Z,41.70
2022-12-19T07:55:07.553Z,38.65
2022-12-19T07:57:33.907Z,42.42
2022-12-19T08:00:00.405Z,41.42
2022-12-19T08:02:26.889Z,39.40
2022-12-19T08:04:53.306Z,44.58
2022-12-19T08:07:19.689Z,41.08
2022-12-19T08:09:46.029Z,37.80
2022-12-19T08:12:12.628Z,38.80
2022-12-19T08:14:39.491Z,38.92
2022-12-19T08:17:21.753Z,36.92
2022-12-19T08:22:14.797Z,35.45
2022-12-19T08:24:41.148Z,34.03
2022-12-19T08:27:07.573Z,36.60
2022-12-19T08:29:34.062Z,36.47
2022-12-19T08:32:00.447Z,38.90
2022-12-19T08:34:26.843Z,37.20
2022-12-19T08:36:53.235Z,38.45
2022-12-19T08:39:19.594Z,41.63
2022-12-19T08:41:45.964Z,38.25
2022-12-19T08:44:13.247Z,60.38
2022-12-19T08:46:43.533Z,39.13
2022-12-19T08:49:12.990Z,33.70
2022-12-19T08:51:39.354Z,36.28
2022-12-19T08:54:07.928Z,36.15
2022-12-19T08:56:42.991Z,43.97
2022-12-19T08:59:12.605Z,39.72
2022-12-19T09:01:40.347Z,33.28
2022-12-19T09:05:56.210Z,36.10
2022-12-19T09:06:53.572Z,34.70
2022-12-19T09:09:19.943Z,36.15
2022-12-19T09:11:47.875Z,36.20
2022-12-19T09:14:15.711Z,38.67
2022-12-19T09:16:47.928Z,36.45
2022-12-19T09:19:16.401Z,35.95
2022-12-19T09:21:43.576Z,37.95
2022-12-19T09:24:11.075Z,34.60
2022-12-19T09:26:42.095Z,38.58
2022-12-19T09:29:19.449Z,38.17
2022-12-19T09:31:47.779Z,44.50
2022-12-19T09:34:21.994Z,44.80
2022-12-19T09:36:50.398Z,46.00
2022-12-19T09:39:17.985Z,39.42
2022-12-19T09:42:26.298Z,43.72
2022-12-19T09:44:55.251Z,56.97
2022-12-19T09:47:28.721Z,50.42
2022-12-19T09:49:55.338Z,48.80
2022-12-19T09:52:32.820Z,48.22
2022-12-19T09:55:25.211Z,47.17
2022-12-19T09:58:13.579Z,44.60
2022-12-19T10:00:47.126Z,43.58
2022-12-19T10:03:23.997Z,40.92
2022-12-19T10:09:46.311Z,41.88
2022-12-19T10:12:47.857Z,36.80
2022-12-19T10:14:46.668Z,44.67
2022-12-19T10:17:50.662Z,38.38
2022-12-19T10:20:38.439Z,37.88
2022-12-19T10:23:41.316Z,42.22
2022-12-19T10:26:15.409Z,36.92
2022-12-19T10:29:05.939Z,38.85
2022-12-19T10:31:53.676Z,41.45
2022-12-19T10:34:33.381Z,39.05
2022-12-19T10:37:26.806Z,38.50
2022-12-19T10:40:28.059Z,37.00
2022-12-19T10:43:32.815Z,34.65
2022-12-19T10:46:11.394Z,36.90
2022-12-19T10:48:38.018Z,37.17
2022-12-19T10:51:06.895Z,37.75
2022-12-19T10:53:33.958Z,41.75
2022-12-19T10:56:02.747Z,43.90
2022-12-19T10:58:37.559Z,37.28
2022-12-19T11:01:28.827Z,37.90
2022-12-19T11:04:15.549Z,37.97
2022-12-19T11:06:49.724Z,39.63
2022-12-19T11:09:25.685Z,39.38
2022-12-19T11:14:21.243Z,41.97
2022-12-19T11:21:11.553Z,38.75
2022-12-19T11:25:11.765Z,37.60
2022-12-19T11:29:36.398Z,37.63
2022-12-19T11:29:54.116Z,36.90
2022-12-19T11:30:09.322Z,39.13
2022-12-19T11:32:01.724Z,36.30
2022-12-19T11:32:40.298Z,40.92
2022-12-19T11:35:14.844Z,38.10
2022-12-19T11:37:47.859Z,35.85
2022-12-19T11:40:22.404Z,39.80
2022-12-19T11:43:25.599Z,39.42
2022-12-19T11:45:57.401Z,42.42
2022-12-19T11:48:41.109Z,42.50
2022-12-19T11:51:45.471Z,41.53
2022-12-19T11:54:24.600Z,47.00
2022-12-19T11:56:51.059Z,43.22
2022-12-19T11:59:35.956Z,40.03
2022-12-19T12:02:18.238Z,38.53
2022-12-19T12:05:09.637Z,41.08
2022-12-19T12:09:29.465Z,44.42
2022-12-19T12:15:13.581Z,42.60
2022-12-19T12:20:22.762Z,42.70
2022-12-19T12:29:11.932Z,40.95
2022-12-19T12:31:14.531Z,43.95
2022-12-19T12:31:17.894Z,44.45
2022-12-19T12:31:38.741Z,41.15
2022-12-19T12:31:52.580Z,42.65
2022-12-19T12:35:35.106Z,42.72
2022-12-19T12:41:13.812Z,41.10
2022-12-19T12:44:08.173Z,41.85
2022-12-19T12:46:39.821Z,38.10
2022-12-19T12:49:28.689Z,56.35
2022-12-19T12:51:55.921Z,40.63
2022-12-19T12:54:38.084Z,36.60
2022-12-19T12:57:06.215Z,45.50
2022-12-19T12:59:32.840Z,40.92
2022-12-19T13:02:06.584Z,43.08
2022-12-19T13:04:35.256Z,39.30
2022-12-19T13:07:15.471Z,43.03
2022-12-19T13:09:42.909Z,41.08
2022-12-19T13:12:45.242Z,46.60
2022-12-19T13:15:31.620Z,40.95
2022-12-19T13:18:09.677Z,40.22
2022-12-19T13:20:47.840Z,45.70
2022-12-19T13:23:21.762Z,42.95
2022-12-19T13:25:52.141Z,44.65
2022-12-19T13:28:21.235Z,43.17
2022-12-19T13:31:22.825Z,41.22
2022-12-19T13:33:55.677Z,49.63
2022-12-19T13:39:52.338Z,47.60
2022-12-19T13:39:56.900Z,44.85
2022-12-19T13:42:59.492Z,48.28
2022-12-19T13:45:39.980Z,44.78
2022-12-19T13:48:16.545Z,46.60
2022-12-19T13:50:47.643Z,50.72
2022-12-19T13:53:23.385Z,50.63
2022-12-19T13:55:53.327Z,50.72
2022-12-19T13:58:28.937Z,48.83
2022-12-19T14:01:01.095Z,48.45
2022-12-19T14:03:38.193Z,48.20
2022-12-19T14:06:19.569Z,49.15
2022-12-19T14:09:41.548Z,50.85
2022-12-19T14:12:21.637Z,51.05
2022-12-19T14:14:47.876Z,50.03
2022-12-19T14:17:20.107Z,54.70
2022-12-19T14:19:50.084Z,55.40
2022-12-19T14:22:25.362Z,51.38
2022-12-19T14:26:10.254Z,53.47
2022-12-19T14:28:18.039Z,54.53
2022-12-19T14:30:49.916Z,48.28
2022-12-19T14:33:45.560Z,52.72
2022-12-19T14:36:18.638Z,52.63
2022-12-19T14:39:23.113Z,55.65
2022-12-19T14:42:04.328Z,56.00
2022-12-19T14:53:08.570Z,51.35
2022-12-19T14:54:01.917Z,56.00
2022-12-19T14:54:05.591Z,58.55
2022-12-19T14:54:34.885Z,54.35
2022-12-19T14:59:02.495Z,52.22
2022-12-19T15:01:32.181Z,54.33
2022-12-19T15:04:53.435Z,54.67
2022-12-19T15:07:11.844Z,57.13
2022-12-19T15:11:03.349Z,57.88
2022-12-19T15:14:48.461Z,51.88
2022-12-19T15:15:56.667Z,56.25
2022-12-19T15:18:27.357Z,56.40
2022-12-19T15:20:56.518Z,54.45
2022-12-19T15:23:23.912Z,55.88
2022-12-19T15:26:08.475Z,55.00
2022-12-19T15:28:43.081Z,58.80
2022-12-19T15:31:24.300Z,51.65
2022-12-19T15:34:23.745Z,53.10
2022-12-19T15:36:37.288Z,58.33
2022-12-19T15:39:03.889Z,51.83
2022-12-19T15:41:31.192Z,53.38
2022-12-19T15:44:06.108Z,51.17
2022-12-19T15:46:33.464Z,54.95
2022-12-19T15:48:59.919Z,54.38
2022-12-19T15:51:26.390Z,52.60
2022-12-19T15:53:52.773Z,50.58
2022-12-19T15:56:33.720Z,50.20
2022-12-19T15:59:02.037Z,52.78
2022-12-19T16:01:29.382Z,52.80
2022-12-19T16:03:58.898Z,49.63
2022-12-19T16:06:25.554Z,52.00
2022-12-19T16:08:52.117Z,53.50
2022-12-19T16:11:21.278Z,50.00
2022-12-19T16:13:52.546Z,52.13
2022-12-19T16:16:18.952Z,48.00
2022-12-19T16:18:47.315Z,49.03
2022-12-19T16:21:31.488Z,49.90
2022-12-19T16:24:00.673Z,48.55
2022-12-19T16:26:36.863Z,48.55
2022-12-19T16:31:30.328Z,50.80
2022-12-19T16:33:56.722Z,49.10
2022-12-19T16:36:23.094Z,53.92
2022-12-19T16:38:49.634Z,43.58
2022-12-19T16:41:22.082Z,48.42
2022-12-19T16:43:48.879Z,47.05
2022-12-19T16:46:21.800Z,46.97
2022-12-19T16:48:48.464Z,47.42
2022-12-19T16:51:21.333Z,45.92
2022-12-19T16:53:48.452Z,42.85
2022-12-19T16:56:30.098Z,50.22
2022-12-19T16:58:59.889Z,48.70
2022-12-19T17:01:27.300Z,46.40
2022-12-19T17:03:54.408Z,45.83
2022-12-19T17:06:22.055Z,50.25
2022-12-19T17:08:49.055Z,47.42
2022-12-19T17:11:23.066Z,49.90
2022-12-19T17:13:52.561Z,49.55
2022-12-19T17:16:19.020Z,48.97
2022-12-19T17:18:46.380Z,46.22
2022-12-19T17:21:18.162Z,45.40
2022-12-19T17:23:46.224Z,51.42
2022-12-19T17:26:17.646Z,54.15
2022-12-19T17:28:47.831Z,45.42
2022-12-19T17:31:29.444Z,46.30
2022-12-19T17:33:57.694Z,47.70
2022-12-19T17:36:32.664Z,42.47
2022-12-19T17:39:03.745Z,51.20
2022-12-19T17:41:30.656Z,48.75
2022-12-19T17:43:57.233Z,46.30
2022-12-19T17:46:24.309Z,44.72
2022-12-19T17:48:52.803Z,45.83
2022-12-19T17:51:21.445Z,50.40
2022-12-19T17:53:49.748Z,47.08
2022-12-19T17:56:19.689Z,48.10
2022-12-19T17:58:47.219Z,45.33
2022-12-19T18:01:25.028Z,45.17
2022-12-19T18:03:53.798Z,46.17
2022-12-19T18:06:20.728Z,48.88
2022-12-19T18:08:47.785Z,51.67
2022-12-19T18:11:23.263Z,47.53
2022-12-19T18:13:50.080Z,45.20
2022-12-19T18:16:19.655Z,45.35
2022-12-19T18:18:46.758Z,48.72
2022-12-19T18:21:15.668Z,52.60
2022-12-19T18:23:42.387Z,46.15
2022-12-19T18:26:10.812Z,47.53
2022-12-19T18:28:37.858Z,49.67
2022-12-19T18:31:13.717Z,49.67
2022-12-19T18:33:43.036Z,48.13
2022-12-19T18:36:17.306Z,48.75
2022-12-19T18:38:43.708Z,50.42
2022-12-19T18:41:12.076Z,52.03
2022-12-19T18:43:38.456Z,48.03
2022-12-19T18:46:05.756Z,45.65
2022-12-19T18:48:36.872Z,50.95
2022-12-19T18:51:04.713Z,50.50
2022-12-19T18:53:35.336Z,47.15
2022-12-19T18:56:04.484Z,57.10
2022-12-19T18:58:30.976Z,47.05
2022-12-19T19:00:59.579Z,48.25
2022-12-19T19:03:32.349Z,52.45
2022-12-19T19:05:58.950Z,53.25
2022-12-19T19:08:29.145Z,47.63
2022-12-19T19:10:56.446Z,46.45
2022-12-19T19:13:25.576Z,53.72
2022-12-19T19:16:00.786Z,53.15
2022-12-19T19:18:35.044Z,52.28
2022-12-19T19:21:01.938Z,49.47
2022-12-19T19:23:42.512Z,48.83
2022-12-19T19:26:08.899Z,51.05
2022-12-19T19:28:37.288Z,52.60
2022-12-19T19:31:08.537Z,50.53
2022-12-19T19:33:39.604Z,54.75
2022-12-19T19:36:15.212Z,50.67
2022-12-19T19:38:45.301Z,51.20
2022-12-19T19:41:12.522Z,51.65
2022-12-19T19:43:38.989Z,48.67
2022-12-19T19:46:05.731Z,50.22
2022-12-19T19:48:32.286Z,53.42
2022-12-19T19:50:59.053Z,50.30
2022-12-19T19:53:25.758Z,50.25
2022-12-19T19:55:56.680Z,49.35
2022-12-19T19:58:23.545Z,50.25
2022-12-19T20:00:50.290Z,47.45
2022-12-19T20:03:22.274Z,44.22
2022-12-19T20:05:50.063Z,46.40
2022-12-19T20:08:16.625Z,44.35
2022-12-19T20:10:43.030Z,46.50
2022-12-19T20:13:11.096Z,41.35
2022-12-19T20:15:37.721Z,43.75
2022-12-19T20:18:04.199Z,43.95
2022-12-19T20:20:33.188Z,43.63
2022-12-19T20:22:59.611Z,41.38
2022-12-19T20:25:25.945Z,42.75
2022-12-19T20:27:52.326Z,42.38
2022-12-19T20:30:18.821Z,39.40
2022-12-19T20:32:45.258Z,80.00
2022-12-19T20:35:14.881Z,47.45
2022-12-19T20:37:41.972Z,43.95
2022-12-19T20:40:09.007Z,44.75
2022-12-19T20:42:35.735Z,40.10
2022-12-19T20:45:02.444Z,42.60
2022-12-19T20:47:28.926Z,43.20
2022-12-19T20:49:55.352Z,46.50
2022-12-19T20:52:21.739Z,42.25
2022-12-19T20:54:48.202Z,45.33
2022-12-19T20:57:14.625Z,47.72
2022-12-19T20:59:41.074Z,46.25
2022-12-19T21:02:07.859Z,46.90
2022-12-19T21:04:34.744Z,45.97
2022-12-19T21:07:01.259Z,48.53
2022-12-19T21:09:27.768Z,45.20
2022-12-19T21:11:54.281Z,45.67
2022-12-19T21:14:20.655Z,45.28
2022-12-19T21:16:47.139Z,42.35
2022-12-19T21:19:13.648Z,47.97
2022-12-19T21:21:40.043Z,48.22
2022-12-19T21:24:06.578Z,42.50
2022-12-19T21:26:33.933Z,46.35
2022-12-19T21:29:00.487Z,48.05
2022-12-19T21:31:29.839Z,44.90
2022-12-19T21:34:01.024Z,46.35
2022-12-19T21:36:29.157Z,49.15
2022-12-19T21:38:58.916Z,51.00
2022-12-19T21:41:25.778Z,48.72
2022-12-19T21:43:55.143Z,53.08
2022-12-19T21:46:24.239Z,51.90
2022-12-19T21:48:53.297Z,47.20
2022-12-19T21:51:21.572Z,51.15
2022-12-19T21:53:48.824Z,52.33
2022-12-19T21:56:27.221Z,48.40
2022-12-19T21:58:56.191Z,54.85
2022-12-19T22:01:23.473Z,46.97
2022-12-19T22:03:51.033Z,51.78
2022-12-19T22:06:27.381Z,62.38
2022-12-19T22:08:54.753Z,53.20
2022-12-19T22:11:22.257Z,50.55
2022-12-19T22:13:49.429Z,52.78
2022-12-19T22:16:16.830Z,49.47
2022-12-19T22:18:43.731Z,48.83
2022-12-19T22:21:14.722Z,53.08
2022-12-19T22:23:41.448Z,48.33
2022-12-19T22:26:12.287Z,46.55
2022-12-19T22:28:42.356Z,52.10
2022-12-19T22:33:48.023Z,47.13
2022-12-19T22:36:15.908Z,50.88
2022-12-19T22:38:45.813Z,50.20
2022-12-19T22:41:13.001Z,53.20
2022-12-19T22:43:39.953Z,48.47
2022-12-19T22:46:10.406Z,48.88
2022-12-19T22:48:37.412Z,49.80
2022-12-19T22:51:04.074Z,51.80
2022-12-19T22:53:31.955Z,47.20
2022-12-19T22:56:06.122Z,46.97
2022-12-19T22:58:35.325Z,51.40
2022-12-19T23:01:12.396Z,48.72
2022-12-19T23:03:39.004Z,49.00
2022-12-19T23:06:05.576Z,47.83
2022-12-19T23:08:32.071Z,49.20
2022-12-19T23:10:58.520Z,46.63
2022-12-19T23:13:25.990Z,48.03
2022-12-19T23:15:52.418Z,55.40
2022-12-19T23:18:18.820Z,49.63
2022-12-19T23:20:45.260Z,48.90
2022-12-19T23:23:11.638Z,49.45
2022-12-19T23:25:42.491Z,54.22
2022-12-19T23:28:09.771Z,49.40
2022-12-19T23:30:36.979Z,52.88
2022-12-19T23:33:04.172Z,50.78
2022-12-19T23:35:32.647Z,52.47
2022-12-19T23:37:59.032Z,51.53
2022-12-19T23:40:25.410Z,53.75
2022-12-19T23:42:51.764Z,54.53
2022-12-19T23:45:18.350Z,54.42
2022-12-19T23:47:47.770Z,54.95
2022-12-19T23:50:14.372Z,48.63
2022-12-19T23:52:41.769Z,52.35
2022-12-19T23:55:08.827Z,55.40
2022-12-19T23:57:35.198Z,51.55
